Time;durP1;ratioP1;P1;durP2;ratioP2;P2;SDS_P1;SDS_P2;PMS_P1;PMS_P2;Temp;Humidity;BMP_temperature;BMP_pressure;BME280_temperature;BME280_humidity;BME280_pressure;Samples;Min_cycle;Max_cycle;Signal;HPM_P1;HPM_P2
2021/07/04 00:00:50;;;;;;;25.17;23.53;;;;;;;;;;5096474;28;20438;-90
2021/07/04 00:03:18;;;;;;;24.83;23.33;;;;;;;;;;5095975;28;20407;-90
2021/07/04 00:05:47;;;;;;;24.10;22.60;;;;;;;;;;5078090;28;20451;-90
2021/07/04 00:08:16;;;;;;;24.93;23.33;;;;;;;;;;5095960;28;20439;-90
2021/07/04 00:10:46;;;;;;;23.70;22.20;;;;;;;;;;5095634;28;20448;-91
2021/07/04 00:13:13;;;;;;;23.37;21.97;;;;;;;;;;5095686;28;20499;-90
2021/07/04 00:15:42;;;;;;;24.17;22.77;;;;;;;;;;5095520;28;20830;-90
2021/07/04 00:18:09;;;;;;;24.10;22.70;;;;;;;;;;5095552;28;20422;-90
2021/07/04 00:20:37;;;;;;;24.77;23.17;;;;;;;;;;5096385;28;20798;-90
2021/07/04 00:23:04;;;;;;;23.80;22.30;;;;;;;;;;5095433;28;20425;-90
2021/07/04 00:25:32;;;;;;;23.93;22.53;;;;;;;;;;5095321;28;20445;-90
2021/07/04 00:28:01;;;;;;;24.27;22.87;;;;;;;;;;5077718;28;20862;-90
2021/07/04 00:30:29;;;;;;;23.73;22.30;;;;;;;;;;5095553;28;20428;-90
2021/07/04 00:32:56;;;;;;;24.50;22.90;;;;;;;;;;5095109;28;20453;-90
2021/07/04 00:35:24;;;;;;;23.80;22.40;;;;;;;;;;5095127;28;20431;-90
2021/07/04 00:37:52;;;;;;;24.57;23.07;;;;;;;;;;5095781;28;20482;-90
2021/07/04 00:40:20;;;;;;;24.00;22.60;;;;;;;;;;5095026;28;20461;-90
2021/07/04 00:42:48;;;;;;;23.43;21.83;;;;;;;;;;5094195;28;20483;-90
2021/07/04 00:45:17;;;;;;;24.57;22.67;;;;;;;;;;5095205;28;20886;-90
2021/07/04 00:47:45;;;;;;;23.50;22.10;;;;;;;;;;5094845;28;20435;-90
2021/07/04 00:50:13;;;;;;;23.23;21.93;;;;;;;;;;5095274;28;20430;-90
2021/07/04 00:52:41;;;;;;;23.63;22.23;;;;;;;;;;5094764;28;20455;-90
2021/07/04 00:55:09;;;;;;;22.80;21.40;;;;;;;;;;5095016;28;20916;-90
2021/07/04 00:57:38;;;;;;;23.33;21.73;;;;;;;;;;5094834;28;20792;-90
2021/07/04 01:00:07;;;;;;;24.60;23.10;;;;;;;;;;5094770;28;20418;-90
2021/07/04 01:02:36;;;;;;;24.30;22.90;;;;;;;;;;5095057;28;20446;-90
2021/07/04 01:05:03;;;;;;;24.07;22.67;;;;;;;;;;5094983;28;20900;-90
2021/07/04 01:07:30;;;;;;;24.70;23.10;;;;;;;;;;5094518;28;20436;-90
2021/07/04 01:09:58;;;;;;;26.77;23.37;;;;;;;;;;5094472;28;20426;-90
2021/07/04 01:12:25;;;;;;;23.30;22.00;;;;;;;;;;5094715;28;20913;-90
2021/07/04 01:14:52;;;;;;;23.60;22.00;;;;;;;;;;5094421;28;20910;-90
2021/07/04 01:17:20;;;;;;;24.03;22.60;;;;;;;;;;5094793;28;20410;-90
2021/07/04 01:19:49;;;;;;;23.00;21.70;;;;;;;;;;5094573;28;20931;-90
2021/07/04 01:22:17;;;;;;;22.60;21.20;;;;;;;;;;5094381;28;20490;-90
2021/07/04 01:24:46;;;;;;;22.60;21.10;;;;;;;;;;5094642;28;20439;-90
2021/07/04 01:27:13;;;;;;;22.83;21.43;;;;;;;;;;5094647;28;20405;-90
2021/07/04 01:29:41;;;;;;;23.77;22.27;;;;;;;;;;5094469;28;20454;-90
2021/07/04 01:32:08;;;;;;;22.80;21.50;;;;;;;;;;5076654;28;20437;-90
2021/07/04 01:34:36;;;;;;;22.53;21.23;;;;;;;;;;5094056;28;20975;-90
2021/07/04 01:37:03;;;;;;;22.90;21.60;;;;;;;;;;5094544;28;20431;-90
2021/07/04 01:39:30;;;;;;;22.60;21.30;;;;;;;;;;5094257;28;20461;-90
2021/07/04 01:41:59;;;;;;;22.43;21.20;;;;;;;;;;5094621;28;20460;-90
2021/07/04 01:44:27;;;;;;;23.77;22.37;;;;;;;;;;5094011;28;20517;-90
2021/07/04 01:46:54;;;;;;;22.57;21.27;;;;;;;;;;5094114;28;20932;-90
2021/07/04 01:49:21;;;;;;;22.77;21.30;;;;;;;;;;5094158;28;20447;-90
2021/07/04 01:51:49;;;;;;;23.97;22.50;;;;;;;;;;5094451;28;20798;-90
2021/07/04 01:54:16;;;;;;;23.50;22.10;;;;;;;;;;5095653;28;20486;-89
2021/07/04 01:56:44;;;;;;;23.57;22.17;;;;;;;;;;5098546;28;20440;-90
2021/07/04 01:59:12;;;;;;;23.00;21.50;;;;;;;;;;5098240;28;20424;-91
2021/07/04 02:01:40;;;;;;;23.50;22.10;;;;;;;;;;5098845;28;20442;-89
2021/07/04 02:04:07;;;;;;;25.47;23.90;;;;;;;;;;5098192;28;20437;-90
2021/07/04 02:06:34;;;;;;;24.90;23.30;;;;;;;;;;5097873;28;20430;-90
2021/07/04 02:09:02;;;;;;;24.80;23.30;;;;;;;;;;5098678;28;20446;-90
2021/07/04 02:11:29;;;;;;;24.20;22.80;;;;;;;;;;5098174;28;20436;-90
2021/07/04 02:13:57;;;;;;;23.87;22.30;;;;;;;;;;5097976;28;20462;-90
2021/07/04 02:16:26;;;;;;;24.93;23.43;;;;;;;;;;5080077;28;20501;-89
2021/07/04 02:18:53;;;;;;;24.73;23.13;;;;;;;;;;5098084;28;20939;-90
2021/07/04 02:21:21;;;;;;;24.10;22.70;;;;;;;;;;5097953;28;20796;-90
2021/07/04 02:23:48;;;;;;;24.03;22.47;;;;;;;;;;5097995;28;20443;-90
2021/07/04 02:26:16;;;;;;;24.20;22.80;;;;;;;;;;5097653;28;20517;-89
2021/07/04 02:28:43;;;;;;;24.40;22.90;;;;;;;;;;5097574;28;20442;-90
2021/07/04 02:31:10;;;;;;;24.70;23.30;;;;;;;;;;5097871;28;20449;-88
2021/07/04 02:33:39;;;;;;;31.37;23.60;;;;;;;;;;5097768;28;20488;-91
2021/07/04 02:36:07;;;;;;;24.30;22.87;;;;;;;;;;5097953;28;20442;-90
2021/07/04 02:38:34;;;;;;;24.93;23.43;;;;;;;;;;5097771;28;20958;-90
2021/07/04 02:41:01;;;;;;;25.23;23.63;;;;;;;;;;5097588;28;20971;-90
2021/07/04 02:43:29;;;;;;;25.33;23.73;;;;;;;;;;5079601;28;20442;-90
2021/07/04 02:45:56;;;;;;;27.03;25.13;;;;;;;;;;5097565;28;20444;-90
2021/07/04 02:48:24;;;;;;;26.07;24.47;;;;;;;;;;5079638;28;20446;-90
2021/07/04 02:50:53;;;;;;;25.63;24.10;;;;;;;;;;5097500;28;20446;-89
2021/07/04 02:53:20;;;;;;;27.47;25.50;;;;;;;;;;5097418;28;20445;-90
2021/07/04 02:55:48;;;;;;;25.97;24.30;;;;;;;;;;5097403;28;20416;-90
2021/07/04 02:58:15;;;;;;;26.47;24.57;;;;;;;;;;5097386;28;20427;-90
2021/07/04 03:00:45;;;;;;;27.60;25.60;;;;;;;;;;5097124;28;20438;-90
2021/07/04 03:03:12;;;;;;;28.40;26.50;;;;;;;;;;5097169;28;20448;-89
2021/07/04 03:05:40;;;;;;;29.40;27.40;;;;;;;;;;5096720;28;20466;-90
2021/07/04 03:08:09;;;;;;;28.63;26.83;;;;;;;;;;5097108;28;20764;-90
2021/07/04 03:10:36;;;;;;;28.90;27.10;;;;;;;;;;5079141;28;20442;-90
2021/07/04 03:13:04;;;;;;;27.87;25.97;;;;;;;;;;5096500;28;20435;-90
2021/07/04 03:15:31;;;;;;;28.77;26.87;;;;;;;;;;5096779;28;20421;-90
2021/07/04 03:17:59;;;;;;;28.60;26.67;;;;;;;;;;5096742;28;20421;-90
2021/07/04 03:20:26;;;;;;;29.80;27.73;;;;;;;;;;5079058;28;20451;-90
2021/07/04 03:22:54;;;;;;;28.47;26.67;;;;;;;;;;5096811;28;20420;-90
2021/07/04 03:25:22;;;;;;;28.70;26.90;;;;;;;;;;5096562;28;20433;-90
2021/07/04 03:27:50;;;;;;;28.13;26.30;;;;;;;;;;5097531;28;20755;-90
2021/07/04 03:30:18;;;;;;;29.53;27.63;;;;;;;;;;5096605;28;20425;-90
2021/07/04 03:32:47;;;;;;;29.80;27.50;;;;;;;;;;5096746;28;20410;-90
2021/07/04 03:35:15;;;;;;;29.20;27.20;;;;;;;;;;5096278;28;20467;-90
2021/07/04 03:37:42;;;;;;;30.50;28.27;;;;;;;;;;5096298;28;20414;-90
2021/07/04 03:40:11;;;;;;;28.07;26.27;;;;;;;;;;5096247;28;20435;-90
2021/07/04 03:42:40;;;;;;;29.87;27.57;;;;;;;;;;5096314;28;20475;-90
2021/07/04 03:45:08;;;;;;;30.57;28.57;;;;;;;;;;5096138;28;20417;-90
2021/07/04 03:47:35;;;;;;;29.73;27.73;;;;;;;;;;5095925;28;20935;-90
2021/07/04 03:50:03;;;;;;;29.97;28.03;;;;;;;;;;5096244;28;20437;-90
2021/07/04 03:52:30;;;;;;;29.47;27.57;;;;;;;;;;5079056;28;20462;-90
2021/07/04 03:54:57;;;;;;;28.20;26.50;;;;;;;;;;5095787;28;20459;-90
2021/07/04 03:57:26;;;;;;;28.80;26.80;;;;;;;;;;5096135;28;20417;-90
2021/07/04 03:59:55;;;;;;;28.60;26.70;;;;;;;;;;5096004;28;20504;-89
2021/07/04 04:02:23;;;;;;;29.67;27.67;;;;;;;;;;5095768;28;20543;-90
2021/07/04 04:04:50;;;;;;;28.60;26.70;;;;;;;;;;5095597;28;20450;-90
2021/07/04 04:07:18;;;;;;;28.57;26.80;;;;;;;;;;5095724;28;20454;-88
2021/07/04 04:09:47;;;;;;;28.00;26.20;;;;;;;;;;5096762;28;20466;-88
2021/07/04 04:12:15;;;;;;;28.03;26.03;;;;;;;;;;5095567;28;20444;-88
2021/07/04 04:14:42;;;;;;;27.20;25.50;;;;;;;;;;5095859;28;20509;-90
2021/07/04 04:17:12;;;;;;;27.93;26.10;;;;;;;;;;5095960;28;20948;-90
2021/07/04 04:19:39;;;;;;;26.50;24.77;;;;;;;;;;5077881;28;20928;-89
2021/07/04 04:22:07;;;;;;;29.50;27.37;;;;;;;;;;5095380;28;20498;-87
2021/07/04 04:24:34;;;;;;;25.97;24.40;;;;;;;;;;5095625;28;20821;-88
2021/07/04 04:27:01;;;;;;;27.50;25.67;;;;;;;;;;5077312;28;20472;-88
2021/07/04 04:29:29;;;;;;;26.63;24.83;;;;;;;;;;5077659;28;20437;-88
2021/07/04 04:31:56;;;;;;;28.57;26.50;;;;;;;;;;5077438;28;20447;-88
2021/07/04 04:34:25;;;;;;;27.40;24.93;;;;;;;;;;5095509;28;20824;-88
2021/07/04 04:36:53;;;;;;;28.03;26.10;;;;;;;;;;5095453;28;20438;-88
2021/07/04 04:39:21;;;;;;;27.13;25.37;;;;;;;;;;5095295;28;20435;-88
2021/07/04 04:41:48;;;;;;;27.87;26.00;;;;;;;;;;5095260;28;20538;-88
2021/07/04 04:44:16;;;;;;;26.50;24.90;;;;;;;;;;5095314;28;20412;-88
2021/07/04 04:46:43;;;;;;;26.63;24.90;;;;;;;;;;5095133;28;20447;-88
2021/07/04 04:49:10;;;;;;;26.47;24.63;;;;;;;;;;5094900;28;20936;-88
2021/07/04 04:51:39;;;;;;;25.80;23.90;;;;;;;;;;5094696;28;20513;-88
2021/07/04 04:54:07;;;;;;;27.20;25.30;;;;;;;;;;5095081;28;20489;-87
2021/07/04 04:56:34;;;;;;;26.90;25.20;;;;;;;;;;5095006;28;20412;-87
2021/07/04 04:59:02;;;;;;;26.50;24.77;;;;;;;;;;5077395;28;20419;-88
2021/07/04 05:01:29;;;;;;;28.47;26.67;;;;;;;;;;5094922;28;20443;-88
2021/07/04 05:03:57;;;;;;;26.90;24.93;;;;;;;;;;5076731;28;20439;-87
2021/07/04 05:06:24;;;;;;;26.47;24.50;;;;;;;;;;5076961;28;20509;-88
2021/07/04 05:08:53;;;;;;;26.30;24.60;;;;;;;;;;5094816;28;20443;-87
2021/07/04 05:11:21;;;;;;;26.47;24.57;;;;;;;;;;5095049;28;20417;-88
2021/07/04 05:13:48;;;;;;;27.27;25.57;;;;;;;;;;5094423;28;20942;-88
2021/07/04 05:16:17;;;;;;;27.50;25.60;;;;;;;;;;5094446;28;20421;-88
2021/07/04 05:18:44;;;;;;;26.67;24.87;;;;;;;;;;5094758;28;20440;-88
2021/07/04 05:21:12;;;;;;;25.77;24.07;;;;;;;;;;5094369;28;20457;-88
2021/07/04 05:23:39;;;;;;;26.63;24.83;;;;;;;;;;5094586;28;20413;-88
2021/07/04 05:26:08;;;;;;;27.40;25.50;;;;;;;;;;5094691;28;20413;-87
2021/07/04 05:28:36;;;;;;;27.70;25.67;;;;;;;;;;5094243;28;20409;-88
2021/07/04 05:31:03;;;;;;;27.43;25.53;;;;;;;;;;5094821;28;20439;-87
2021/07/04 05:33:31;;;;;;;27.63;25.83;;;;;;;;;;5094506;28;20417;-88
2021/07/04 05:35:58;;;;;;;26.60;24.93;;;;;;;;;;5094182;28;20453;-88
2021/07/04 05:38:31;;;;;;;26.90;25.00;;;;;;;;;;5094530;28;20451;-88
2021/07/04 05:40:58;;;;;;;28.37;26.47;;;;;;;;;;5094085;28;20456;-88
2021/07/04 05:43:27;;;;;;;26.70;25.00;;;;;;;;;;5094036;28;20425;-88
2021/07/04 05:45:55;;;;;;;26.57;24.83;;;;;;;;;;5094400;28;20451;-87
2021/07/04 05:48:22;;;;;;;27.07;25.27;;;;;;;;;;5094158;28;20427;-88
2021/07/04 05:50:50;;;;;;;26.47;24.77;;;;;;;;;;5094137;28;20565;-88
2021/07/04 05:53:17;;;;;;;27.47;25.60;;;;;;;;;;5094277;28;20531;-88
2021/07/04 05:55:45;;;;;;;28.33;26.43;;;;;;;;;;5094148;28;20498;-88
2021/07/04 05:58:12;;;;;;;29.07;26.90;;;;;;;;;;5094003;28;20455;-88
2021/07/04 06:00:42;;;;;;;28.63;26.63;;;;;;;;;;5076397;28;20423;-88
2021/07/04 06:03:09;;;;;;;27.20;25.40;;;;;;;;;;5094240;28;20438;-88
2021/07/04 06:05:37;;;;;;;28.63;26.83;;;;;;;;;;5094371;28;20421;-88
2021/07/04 06:08:05;;;;;;;28.23;26.53;;;;;;;;;;5094172;28;20398;-87
2021/07/04 06:10:32;;;;;;;28.00;26.20;;;;;;;;;;5093985;28;20417;-88
2021/07/04 06:13:01;;;;;;;29.63;27.57;;;;;;;;;;5076091;28;20450;-88
2021/07/04 06:15:28;;;;;;;29.30;27.40;;;;;;;;;;5093528;28;20458;-88
2021/07/04 06:17:58;;;;;;;28.87;26.93;;;;;;;;;;5093997;28;20767;-86
2021/07/04 06:20:25;;;;;;;27.30;25.50;;;;;;;;;;5093735;28;20476;-88
2021/07/04 06:22:54;;;;;;;30.17;28.10;;;;;;;;;;5053356;28;20415;-87
2021/07/04 06:25:22;;;;;;;28.63;26.60;;;;;;;;;;5052485;28;20455;-88
2021/07/04 06:27:50;;;;;;;29.67;27.57;;;;;;;;;;5053654;28;20425;-88
2021/07/04 06:30:17;;;;;;;28.80;26.70;;;;;;;;;;5053790;28;20441;-88
2021/07/04 06:32:45;;;;;;;28.60;26.83;;;;;;;;;;5052609;28;20450;-88
2021/07/04 06:35:15;;;;;;;29.27;27.47;;;;;;;;;;5053601;28;20804;-88
2021/07/04 06:37:43;;;;;;;28.47;26.47;;;;;;;;;;5053371;28;20430;-88
2021/07/04 06:40:11;;;;;;;27.03;25.33;;;;;;;;;;5052476;28;20415;-88
2021/07/04 06:42:38;;;;;;;28.17;26.17;;;;;;;;;;5056709;28;20949;-88
2021/07/04 06:45:08;;;;;;;29.97;27.97;;;;;;;;;;5057149;28;20912;-88
2021/07/04 06:47:35;;;;;;;29.33;27.33;;;;;;;;;;5057253;28;20426;-88
2021/07/04 06:50:03;;;;;;;28.27;26.37;;;;;;;;;;5057416;28;20409;-88
2021/07/04 06:52:32;;;;;;;28.47;26.70;;;;;;;;;;5057423;28;20515;-87
2021/07/04 06:54:59;;;;;;;28.43;26.67;;;;;;;;;;5056521;28;20489;-87
2021/07/04 06:57:29;;;;;;;29.00;27.20;;;;;;;;;;5056628;28;20420;-87
2021/07/04 07:00:00;;;;;;;28.10;26.40;;;;;;;;;;5056996;28;20879;-87
2021/07/04 07:02:28;;;;;;;29.60;27.60;;;;;;;;;;5056846;28;20424;-88
2021/07/04 07:04:55;;;;;;;28.40;26.63;;;;;;;;;;5057358;28;20464;-89
2021/07/04 07:07:23;;;;;;;31.50;29.30;;;;;;;;;;5056834;28;20452;-88
2021/07/04 07:09:52;;;;;;;31.30;29.20;;;;;;;;;;5056747;28;20412;-88
2021/07/04 07:12:19;;;;;;;30.47;28.57;;;;;;;;;;5056618;28;20460;-87
2021/07/04 07:14:46;;;;;;;28.60;26.80;;;;;;;;;;5056328;28;20794;-88
2021/07/04 07:17:14;;;;;;;31.00;28.80;;;;;;;;;;5056279;28;20898;-88
2021/07/04 07:19:41;;;;;;;28.90;27.03;;;;;;;;;;5057080;28;20766;-88
2021/07/04 07:22:09;;;;;;;30.07;28.13;;;;;;;;;;5084743;28;20454;-88
2021/07/04 07:24:36;;;;;;;27.70;25.90;;;;;;;;;;5078869;28;20459;-88
2021/07/04 07:27:06;;;;;;;28.43;26.63;;;;;;;;;;5096419;28;20450;-88
2021/07/04 07:29:33;;;;;;;29.03;26.67;;;;;;;;;;5096352;28;20415;-88
2021/07/04 07:32:01;;;;;;;28.90;26.83;;;;;;;;;;5096169;28;20447;-88
2021/07/04 07:34:28;;;;;;;26.23;24.60;;;;;;;;;;5078128;28;20446;-87
2021/07/04 07:36:56;;;;;;;26.73;24.67;;;;;;;;;;5096888;28;20462;-88
2021/07/04 07:39:23;;;;;;;26.23;24.60;;;;;;;;;;5096673;28;20415;-88
2021/07/04 07:41:51;;;;;;;28.53;26.73;;;;;;;;;;5096318;28;20442;-88
2021/07/04 07:44:20;;;;;;;27.40;25.60;;;;;;;;;;5096342;28;20405;-87
2021/07/04 07:46:49;;;;;;;28.30;26.40;;;;;;;;;;5096312;28;20900;-88
2021/07/04 07:49:16;;;;;;;26.83;25.03;;;;;;;;;;5096159;28;20487;-88
2021/07/04 07:51:48;;;;;;;26.80;25.00;;;;;;;;;;5096197;28;20436;-88
2021/07/04 07:54:16;;;;;;;26.97;25.17;;;;;;;;;;5096234;28;20456;-88
2021/07/04 07:56:43;;;;;;;26.20;24.57;;;;;;;;;;5096304;28;20406;-88
2021/07/04 07:59:10;;;;;;;25.03;23.43;;;;;;;;;;5095826;28;20489;-88
2021/07/04 08:01:40;;;;;;;25.90;24.30;;;;;;;;;;5104923;28;20401;-88
2021/07/04 08:04:07;;;;;;;24.60;23.10;;;;;;;;;;5117206;28;20431;-89
2021/07/04 08:06:35;;;;;;;24.97;23.10;;;;;;;;;;5098759;28;20447;-88
2021/07/04 08:09:02;;;;;;;25.73;24.13;;;;;;;;;;5116078;28;20924;-88
2021/07/04 08:11:29;;;;;;;25.47;23.97;;;;;;;;;;5116330;28;20435;-88
2021/07/04 08:14:00;;;;;;;24.07;22.60;;;;;;;;;;5116116;28;20454;-88
2021/07/04 08:16:27;;;;;;;25.53;23.93;;;;;;;;;;5116168;28;20493;-88
2021/07/04 08:18:56;;;;;;;24.20;22.80;;;;;;;;;;5115972;28;20424;-88
2021/07/04 08:21:23;;;;;;;25.30;23.70;;;;;;;;;;5116065;28;20461;-89
2021/07/04 08:23:51;;;;;;;26.43;24.73;;;;;;;;;;5116191;28;20446;-85
2021/07/04 08:26:18;;;;;;;27.13;25.43;;;;;;;;;;5115481;28;20454;-89
2021/07/04 08:28:45;;;;;;;26.47;24.37;;;;;;;;;;5116073;28;20447;-89
2021/07/04 08:31:13;;;;;;;25.73;24.03;;;;;;;;;;5097806;28;20422;-89
2021/07/04 08:33:40;;;;;;;26.33;24.63;;;;;;;;;;5115705;28;20428;-89
2021/07/04 08:36:09;;;;;;;26.37;24.43;;;;;;;;;;5115376;28;20478;-89
2021/07/04 08:38:37;;;;;;;24.97;23.47;;;;;;;;;;5116005;28;20939;-89
2021/07/04 08:41:05;;;;;;;27.13;25.43;;;;;;;;;;5115662;28;20459;-88
2021/07/04 08:43:33;;;;;;;25.00;23.30;;;;;;;;;;5115432;28;20446;-88
2021/07/04 08:46:02;;;;;;;24.60;23.17;;;;;;;;;;5115660;28;20413;-88
2021/07/04 08:48:29;;;;;;;26.97;25.27;;;;;;;;;;5097940;28;20447;-88
2021/07/04 08:50:57;;;;;;;25.30;23.80;;;;;;;;;;5115539;28;20432;-88
2021/07/04 08:53:26;;;;;;;24.80;23.40;;;;;;;;;;5115580;28;20423;-89
2021/07/04 08:55:55;;;;;;;25.50;23.90;;;;;;;;;;5097508;28;20461;-89
2021/07/04 08:58:23;;;;;;;26.00;24.50;;;;;;;;;;5115341;28;20979;-89
2021/07/04 09:01:09;;;;;;;25.97;24.37;;;;;;;;;;5115431;28;20407;-89
2021/07/04 09:03:37;;;;;;;27.10;25.40;;;;;;;;;;5114152;28;20440;-88
2021/07/04 09:06:04;;;;;;;26.03;24.43;;;;;;;;;;5115437;28;20424;-89
2021/07/04 09:08:33;;;;;;;27.23;25.50;;;;;;;;;;5115084;28;20443;-89
2021/07/04 09:11:14;;;;;;;27.03;25.37;;;;;;;;;;5115274;28;20878;-89
2021/07/04 09:13:42;;;;;;;27.70;26.00;;;;;;;;;;5115309;28;20410;-89
2021/07/04 09:16:10;;;;;;;27.00;25.27;;;;;;;;;;5115287;28;20480;-89
2021/07/04 09:18:38;;;;;;;27.70;25.90;;;;;;;;;;5114903;28;20431;-89
2021/07/04 09:21:16;;;;;;;28.23;26.33;;;;;;;;;;5114837;28;20469;-89
2021/07/04 09:23:47;;;;;;;29.03;27.13;;;;;;;;;;5097165;28;20407;-89
2021/07/04 09:26:29;;;;;;;26.93;25.23;;;;;;;;;;5114902;28;20451;-89
2021/07/04 09:28:56;;;;;;;27.43;25.83;;;;;;;;;;5114234;28;20444;-89
2021/07/04 09:31:24;;;;;;;26.77;24.80;;;;;;;;;;5114925;28;20403;-89
2021/07/04 09:34:02;;;;;;;25.40;23.80;;;;;;;;;;5096831;28;20423;-89
2021/07/04 09:36:30;;;;;;;26.07;24.27;;;;;;;;;;5114876;28;20449;-85
2021/07/04 09:38:59;;;;;;;26.30;24.70;;;;;;;;;;5096654;28;20411;-89
2021/07/04 09:41:26;;;;;;;27.17;25.47;;;;;;;;;;5114744;28;20479;-89
2021/07/04 09:43:54;;;;;;;26.73;24.90;;;;;;;;;;5114913;28;20456;-90
2021/07/04 09:46:21;;;;;;;27.60;25.33;;;;;;;;;;5114422;28;20430;-90
2021/07/04 09:48:49;;;;;;;26.33;24.73;;;;;;;;;;5096935;28;20452;-89
2021/07/04 09:51:18;;;;;;;26.47;24.87;;;;;;;;;;5097287;28;20461;-90
2021/07/04 09:53:48;;;;;;;26.40;24.73;;;;;;;;;;5115091;28;20411;-89
2021/07/04 09:56:18;;;;;;;26.47;24.83;;;;;;;;;;5114269;28;20552;-89
2021/07/04 09:58:46;;;;;;;26.40;24.83;;;;;;;;;;5114394;28;20443;-90
2021/07/04 10:01:31;;;;;;;26.53;24.93;;;;;;;;;;5114652;28;20415;-90
2021/07/04 10:03:58;;;;;;;28.67;26.47;;;;;;;;;;5114769;28;20426;-90
2021/07/04 10:06:26;;;;;;;27.90;26.10;;;;;;;;;;5114376;28;20422;-89
2021/07/04 10:08:53;;;;;;;28.50;26.70;;;;;;;;;;5114644;28;20451;-89
2021/07/04 10:11:22;;;;;;;29.13;27.40;;;;;;;;;;5115051;28;20418;-90
2021/07/04 10:13:51;;;;;;;27.23;25.47;;;;;;;;;;5114469;28;20766;-89
2021/07/04 10:16:19;;;;;;;29.00;26.90;;;;;;;;;;5099620;28;20466;-89
2021/07/04 10:18:48;;;;;;;29.50;27.50;;;;;;;;;;5118593;28;20447;-89
2021/07/04 10:21:16;;;;;;;29.27;27.40;;;;;;;;;;5118041;28;20542;-89
2021/07/04 10:23:47;;;;;;;28.17;26.33;;;;;;;;;;5118563;28;20937;-90
2021/07/04 10:26:15;;;;;;;27.10;25.40;;;;;;;;;;5118056;28;20418;-90
2021/07/04 10:28:44;;;;;;;27.33;25.43;;;;;;;;;;5118278;28;20398;-90
2021/07/04 10:31:14;;;;;;;26.77;25.10;;;;;;;;;;5119353;28;20422;-90
2021/07/04 10:33:42;;;;;;;27.77;25.60;;;;;;;;;;5117910;28;20429;-89
2021/07/04 10:36:11;;;;;;;26.13;24.53;;;;;;;;;;5117554;28;20454;-89
2021/07/04 10:38:40;;;;;;;26.50;24.80;;;;;;;;;;5118204;28;20433;-89
2021/07/04 10:41:08;;;;;;;26.90;25.23;;;;;;;;;;5099581;28;20495;-85
2021/07/04 10:44:08;;;;;;;26.57;24.70;;;;;;;;;;5117883;28;20876;-93
2021/07/04 10:46:54;;;;;;;24.60;23.10;;;;;;;;;;5118713;28;20436;-91
2021/07/04 10:49:23;;;;;;;25.50;23.90;;;;;;;;;;5117696;28;20936;-91
2021/07/04 10:51:55;;;;;;;24.73;23.23;;;;;;;;;;5117658;28;20960;-89
2021/07/04 10:54:37;;;;;;;25.10;23.50;;;;;;;;;;5117879;28;20752;-89
2021/07/04 10:57:08;;;;;;;26.60;24.90;;;;;;;;;;5116770;28;20487;-89
2021/07/04 10:59:49;;;;;;;26.10;24.23;;;;;;;;;;5118072;28;20768;-89
2021/07/04 11:02:31;;;;;;;27.30;25.70;;;;;;;;;;5117718;28;20406;-89
2021/07/04 11:05:00;;;;;;;26.83;25.13;;;;;;;;;;5099270;28;20497;-89
2021/07/04 11:07:48;;;;;;;28.00;26.10;;;;;;;;;;5099576;28;20450;-89
2021/07/04 11:10:17;;;;;;;27.83;25.93;;;;;;;;;;5117451;28;20426;-89
2021/07/04 11:12:45;;;;;;;26.73;25.03;;;;;;;;;;5117582;28;20459;-89
2021/07/04 11:15:31;;;;;;;27.63;25.93;;;;;;;;;;5117627;28;20476;-90
2021/07/04 11:18:05;;;;;;;28.40;26.60;;;;;;;;;;5117030;28;20477;-91
2021/07/04 11:20:35;;;;;;;27.23;25.57;;;;;;;;;;5099303;28;20447;-90
2021/07/04 11:23:03;;;;;;;26.50;24.80;;;;;;;;;;5099383;28;20440;-90
2021/07/04 11:25:42;;;;;;;26.10;24.50;;;;;;;;;;5117447;28;20466;-90
2021/07/04 11:28:25;;;;;;;26.23;24.43;;;;;;;;;;5116078;28;20410;-90
2021/07/04 11:30:53;;;;;;;26.50;24.90;;;;;;;;;;5115344;28;20430;-91
2021/07/04 11:33:36;;;;;;;26.90;25.20;;;;;;;;;;5117642;28;20422;-91
2021/07/04 11:36:07;;;;;;;27.00;25.30;;;;;;;;;;5099066;28;20476;-90
2021/07/04 11:38:35;;;;;;;27.43;25.60;;;;;;;;;;5099031;28;20441;-90
2021/07/04 11:41:03;;;;;;;28.17;26.17;;;;;;;;;;5116652;28;20589;-90
2021/07/04 11:43:31;;;;;;;25.83;24.23;;;;;;;;;;5116510;28;20438;-89
2021/07/04 11:46:00;;;;;;;26.20;24.50;;;;;;;;;;5116505;28;20470;-90
2021/07/04 11:48:47;;;;;;;27.67;25.77;;;;;;;;;;5116820;28;20441;-89
2021/07/04 11:51:22;;;;;;;26.60;24.80;;;;;;;;;;5116657;28;20421;-89
2021/07/04 11:53:50;;;;;;;28.40;26.60;;;;;;;;;;5116449;28;20418;-89
2021/07/04 11:56:18;;;;;;;27.20;25.50;;;;;;;;;;5116003;28;20987;-90
2021/07/04 11:58:45;;;;;;;26.63;24.93;;;;;;;;;;5116544;28;20409;-89
2021/07/04 12:01:16;;;;;;;25.87;24.27;;;;;;;;;;5116673;28;20794;-90
2021/07/04 12:03:44;;;;;;;26.13;24.53;;;;;;;;;;5116175;28;20436;-89
2021/07/04 12:06:11;;;;;;;26.50;24.83;;;;;;;;;;5116496;28;20788;-90
2021/07/04 12:08:59;;;;;;;28.27;26.37;;;;;;;;;;5116373;28;21001;-89
2021/07/04 12:11:42;;;;;;;26.83;25.23;;;;;;;;;;5115928;28;20449;-89
2021/07/04 12:14:22;;;;;;;27.20;25.50;;;;;;;;;;5114509;28;20437;-89
2021/07/04 12:16:50;;;;;;;27.57;25.87;;;;;;;;;;5098432;28;20458;-89
2021/07/04 12:19:26;;;;;;;29.43;27.53;;;;;;;;;;5115741;28;20784;-90
2021/07/04 12:21:53;;;;;;;26.33;24.63;;;;;;;;;;5097738;28;20440;-89
2021/07/04 12:24:22;;;;;;;27.37;25.67;;;;;;;;;;5116806;28;20419;-89
2021/07/04 12:26:50;;;;;;;26.90;25.20;;;;;;;;;;5115707;28;20435;-89
2021/07/04 12:29:17;;;;;;;27.40;25.70;;;;;;;;;;5115708;28;20944;-89
2021/07/04 12:31:44;;;;;;;26.47;24.83;;;;;;;;;;5115995;28;20429;-89
2021/07/04 12:34:13;;;;;;;27.27;25.37;;;;;;;;;;5115765;28;20986;-89
2021/07/04 12:36:40;;;;;;;26.70;25.10;;;;;;;;;;5115876;28;20480;-90
2021/07/04 12:39:11;;;;;;;27.93;26.03;;;;;;;;;;5114561;28;20453;-90
2021/07/04 12:41:41;;;;;;;28.27;26.47;;;;;;;;;;5115649;28;20529;-89
2021/07/04 12:44:14;;;;;;;28.20;26.40;;;;;;;;;;5115667;28;20432;-89
2021/07/04 12:46:41;;;;;;;27.20;25.50;;;;;;;;;;5115508;28;20402;-89
2021/07/04 12:49:13;;;;;;;28.03;26.17;;;;;;;;;;5115209;28;20422;-89
2021/07/04 12:51:43;;;;;;;27.43;25.73;;;;;;;;;;5115755;28;20433;-89
2021/07/04 12:54:16;;;;;;;27.10;25.40;;;;;;;;;;5115637;28;20506;-89
2021/07/04 12:56:48;;;;;;;28.03;26.20;;;;;;;;;;5115143;28;20453;-89
2021/07/04 12:59:23;;;;;;;28.80;27.00;;;;;;;;;;5115539;28;20438;-88
2021/07/04 13:01:54;;;;;;;28.10;26.40;;;;;;;;;;5115761;28;20449;-89
2021/07/04 13:04:21;;;;;;;27.27;25.50;;;;;;;;;;5116132;28;20438;-89
2021/07/04 13:06:50;;;;;;;27.60;25.80;;;;;;;;;;5115385;28;20509;-89
2021/07/04 13:09:22;;;;;;;27.10;25.30;;;;;;;;;;5116176;28;20449;-89
2021/07/04 13:12:05;;;;;;;26.13;24.40;;;;;;;;;;5114851;28;20480;-89
2021/07/04 13:14:38;;;;;;;26.70;24.90;;;;;;;;;;5115367;28;20447;-89
2021/07/04 13:17:06;;;;;;;26.77;24.90;;;;;;;;;;5114779;28;21004;-89
2021/07/04 13:19:34;;;;;;;25.97;24.37;;;;;;;;;;5097139;28;20425;-89
2021/07/04 13:22:12;;;;;;;27.03;25.33;;;;;;;;;;5114841;28;20476;-89
2021/07/04 13:24:44;;;;;;;26.47;24.80;;;;;;;;;;5115279;28;20467;-92
2021/07/04 13:27:17;;;;;;;26.70;24.90;;;;;;;;;;5115348;28;20436;-89
2021/07/04 13:29:45;;;;;;;27.23;25.53;;;;;;;;;;5114986;28;20438;-89
2021/07/04 13:32:14;;;;;;;27.93;26.23;;;;;;;;;;5114771;28;20415;-89
2021/07/04 13:34:42;;;;;;;27.37;25.50;;;;;;;;;;5114954;28;20453;-89
2021/07/04 13:37:10;;;;;;;27.80;26.10;;;;;;;;;;5114648;28;20487;-85
2021/07/04 13:39:57;;;;;;;27.93;26.23;;;;;;;;;;5115778;28;20444;-89
2021/07/04 13:42:26;;;;;;;28.17;26.47;;;;;;;;;;5114364;28;20483;-90
2021/07/04 13:44:54;;;;;;;27.30;25.57;;;;;;;;;;5114869;28;20445;-89
2021/07/04 13:47:22;;;;;;;26.33;24.73;;;;;;;;;;5115395;28;20437;-89
2021/07/04 13:49:49;;;;;;;26.30;24.60;;;;;;;;;;5097382;28;20493;-89
2021/07/04 13:52:17;;;;;;;28.47;26.77;;;;;;;;;;5118953;28;20477;-89
2021/07/04 13:54:45;;;;;;;27.40;25.70;;;;;;;;;;5118693;28;20414;-89
2021/07/04 13:57:13;;;;;;;27.17;25.47;;;;;;;;;;5118895;28;20458;-89
2021/07/04 13:59:42;;;;;;;27.30;25.57;;;;;;;;;;5119094;28;20416;-89
2021/07/04 14:02:09;;;;;;;28.60;26.80;;;;;;;;;;5118769;28;20444;-89
2021/07/04 14:04:37;;;;;;;26.73;25.13;;;;;;;;;;5118445;28;20510;-89
2021/07/04 14:07:05;;;;;;;28.90;27.10;;;;;;;;;;5118981;28;20437;-89
2021/07/04 14:09:33;;;;;;;28.27;26.37;;;;;;;;;;5118647;28;20504;-89
2021/07/04 14:12:00;;;;;;;27.53;25.73;;;;;;;;;;5118475;28;20454;-89
2021/07/04 14:14:28;;;;;;;26.77;25.17;;;;;;;;;;5118700;28;20431;-89
2021/07/04 14:16:58;;;;;;;27.90;26.20;;;;;;;;;;5118242;28;20458;-89
2021/07/04 14:19:25;;;;;;;27.50;25.87;;;;;;;;;;5119636;28;20419;-89
2021/07/04 14:21:52;;;;;;;27.50;25.90;;;;;;;;;;5118008;28;20467;-89
2021/07/04 14:24:20;;;;;;;28.97;27.10;;;;;;;;;;5118217;28;20490;-89
2021/07/04 14:26:47;;;;;;;26.90;25.30;;;;;;;;;;5117840;28;20443;-90